sensor_id;sensor_type;location;lat;lon;timestamp;P1;durP1;ratioP1;P2;durP2;ratioP2
51927;SDS011;37953;52.806;18.270;2022-11-21T00:00:58;82.63;;;30.88;;
51927;SDS011;37953;52.806;18.270;2022-11-21T00:03:25;83.80;;;31.60;;
51927;SDS011;37953;52.806;18.270;2022-11-21T00:05:51;80.47;;;29.83;;
51927;SDS011;37953;52.806;18.270;2022-11-21T00:08:18;80.13;;;30.55;;
51927;SDS011;37953;52.806;18.270;2022-11-21T00:10:45;81.82;;;31.80;;
51927;SDS011;37953;52.806;18.270;2022-11-21T00:13:13;80.63;;;30.70;;
51927;SDS011;37953;52.806;18.270;2022-11-21T00:15:44;81.03;;;30.50;;
51927;SDS011;37953;52.806;18.270;2022-11-21T00:18:11;84.88;;;31.60;;
51927;SDS011;37953;52.806;18.270;2022-11-21T00:20:37;79.57;;;30.80;;
51927;SDS011;37953;52.806;18.270;2022-11-21T00:23:03;76.75;;;29.58;;
51927;SDS011;37953;52.806;18.270;2022-11-21T00:25:30;78.35;;;29.98;;
51927;SDS011;37953;52.806;18.270;2022-11-21T00:27:56;79.03;;;29.95;;
51927;SDS011;37953;52.806;18.270;2022-11-21T00:30:22;76.57;;;30.40;;
51927;SDS011;37953;52.806;18.270;2022-11-21T00:32:48;74.85;;;29.25;;
51927;SDS011;37953;52.806;18.270;2022-11-21T00:35:14;77.57;;;29.83;;
51927;SDS011;37953;52.806;18.270;2022-11-21T00:37:40;88.22;;;31.92;;
51927;SDS011;37953;52.806;18.270;2022-11-21T00:40:06;89.22;;;32.72;;
51927;SDS011;37953;52.806;18.270;2022-11-21T00:42:32;84.72;;;31.42;;
51927;SDS011;37953;52.806;18.270;2022-11-21T00:44:58;79.90;;;31.45;;
51927;SDS011;37953;52.806;18.270;2022-11-21T00:47:24;83.60;;;30.98;;
51927;SDS011;37953;52.806;18.270;2022-11-21T00:49:50;90.78;;;31.92;;
51927;SDS011;37953;52.806;18.270;2022-11-21T00:52:16;86.40;;;32.40;;
51927;SDS011;37953;52.806;18.270;2022-11-21T00:54:43;105.45;;;36.40;;
51927;SDS011;37953;52.806;18.270;2022-11-21T00:57:08;104.57;;;36.50;;
51927;SDS011;37953;52.806;18.270;2022-11-21T00:59:35;102.78;;;36.20;;
51927;SDS011;37953;52.806;18.270;2022-11-21T01:02:00;89.55;;;33.72;;
51927;SDS011;37953;52.806;18.270;2022-11-21T01:04:30;97.20;;;32.92;;
51927;SDS011;37953;52.806;18.270;2022-11-21T01:06:57;92.32;;;34.13;;
51927;SDS011;37953;52.806;18.270;2022-11-21T01:09:24;93.72;;;33.90;;
51927;SDS011;37953;52.806;18.270;2022-11-21T01:11:50;85.32;;;31.60;;
51927;SDS011;37953;52.806;18.270;2022-11-21T01:14:16;92.13;;;31.55;;
51927;SDS011;37953;52.806;18.270;2022-11-21T01:16:42;81.82;;;31.95;;
51927;SDS011;37953;52.806;18.270;2022-11-21T01:19:08;85.10;;;30.42;;
51927;SDS011;37953;52.806;18.270;2022-11-21T01:21:33;79.32;;;30.80;;
51927;SDS011;37953;52.806;18.270;2022-11-21T01:24:00;77.07;;;29.35;;
51927;SDS011;37953;52.806;18.270;2022-11-21T01:26:28;77.90;;;29.52;;
51927;SDS011;37953;52.806;18.270;2022-11-21T01:28:59;82.70;;;29.58;;
51927;SDS011;37953;52.806;18.270;2022-11-21T01:31:29;78.93;;;29.23;;
51927;SDS011;37953;52.806;18.270;2022-11-21T01:33:56;82.05;;;30.42;;
51927;SDS011;37953;52.806;18.270;2022-11-21T01:36:26;76.95;;;29.65;;
51927;SDS011;37953;52.806;18.270;2022-11-21T01:38:55;76.82;;;29.48;;
51927;SDS011;37953;52.806;18.270;2022-11-21T01:41:27;86.40;;;30.85;;
51927;SDS011;37953;52.806;18.270;2022-11-21T01:44:08;76.07;;;29.50;;
51927;SDS011;37953;52.806;18.270;2022-11-21T01:46:43;83.22;;;30.40;;
51927;SDS011;37953;52.806;18.270;2022-11-21T01:49:30;75.05;;;29.30;;
51927;SDS011;37953;52.806;18.270;2022-11-21T01:57:18;76.45;;;29.38;;
51927;SDS011;37953;52.806;18.270;2022-11-21T02:00:02;79.43;;;30.80;;
51927;SDS011;37953;52.806;18.270;2022-11-21T02:02:38;87.82;;;29.60;;
51927;SDS011;37953;52.806;18.270;2022-11-21T02:05:08;79.28;;;30.08;;
51927;SDS011;37953;52.806;18.270;2022-11-21T02:07:56;76.78;;;28.85;;
51927;SDS011;37953;52.806;18.270;2022-11-21T02:12:53;93.18;;;32.10;;
51927;SDS011;37953;52.806;18.270;2022-11-21T02:15:23;91.77;;;32.67;;
51927;SDS011;37953;52.806;18.270;2022-11-21T02:17:50;87.95;;;31.80;;
51927;SDS011;37953;52.806;18.270;2022-11-21T02:20:18;87.25;;;32.75;;
51927;SDS011;37953;52.806;18.270;2022-11-21T02:23:05;93.05;;;32.50;;
51927;SDS011;37953;52.806;18.270;2022-11-21T02:25:54;90.13;;;32.10;;
51927;SDS011;37953;52.806;18.270;2022-11-21T02:28:21;98.90;;;33.40;;
51927;SDS011;37953;52.806;18.270;2022-11-21T02:30:49;97.22;;;32.85;;
51927;SDS011;37953;52.806;18.270;2022-11-21T02:33:15;96.00;;;32.40;;
51927;SDS011;37953;52.806;18.270;2022-11-21T02:35:41;99.75;;;33.70;;
51927;SDS011;37953;52.806;18.270;2022-11-21T02:38:18;97.78;;;33.63;;
51927;SDS011;37953;52.806;18.270;2022-11-21T02:40:52;94.85;;;32.88;;
51927;SDS011;37953;52.806;18.270;2022-11-21T02:43:43;92.68;;;33.10;;
51927;SDS011;37953;52.806;18.270;2022-11-21T02:46:20;89.53;;;32.15;;
51927;SDS011;37953;52.806;18.270;2022-11-21T02:48:46;94.90;;;32.47;;
51927;SDS011;37953;52.806;18.270;2022-11-21T02:51:15;89.05;;;32.03;;
51927;SDS011;37953;52.806;18.270;2022-11-21T02:53:41;87.13;;;31.85;;
51927;SDS011;37953;52.806;18.270;2022-11-21T02:56:07;97.65;;;33.97;;
51927;SDS011;37953;52.806;18.270;2022-11-21T02:58:33;92.07;;;32.92;;
51927;SDS011;37953;52.806;18.270;2022-11-21T03:00:59;75.25;;;30.65;;
51927;SDS011;37953;52.806;18.270;2022-11-21T03:03:25;88.85;;;32.05;;
51927;SDS011;37953;52.806;18.270;2022-11-21T03:05:51;82.63;;;31.48;;
51927;SDS011;37953;52.806;18.270;2022-11-21T03:08:17;78.22;;;30.50;;
51927;SDS011;37953;52.806;18.270;2022-11-21T03:10:43;82.60;;;30.73;;
51927;SDS011;37953;52.806;18.270;2022-11-21T03:13:09;73.82;;;28.70;;
51927;SDS011;37953;52.806;18.270;2022-11-21T03:15:35;82.72;;;30.33;;
51927;SDS011;37953;52.806;18.270;2022-11-21T03:18:01;79.97;;;30.42;;
51927;SDS011;37953;52.806;18.270;2022-11-21T03:20:28;77.95;;;29.95;;
51927;SDS011;37953;52.806;18.270;2022-11-21T03:23:02;78.93;;;29.88;;
51927;SDS011;37953;52.806;18.270;2022-11-21T03:25:28;81.90;;;30.27;;
51927;SDS011;37953;52.806;18.270;2022-11-21T03:27:54;80.95;;;29.83;;
51927;SDS011;37953;52.806;18.270;2022-11-21T03:30:20;82.25;;;30.08;;
51927;SDS011;37953;52.806;18.270;2022-11-21T03:32:48;82.10;;;30.27;;
51927;SDS011;37953;52.806;18.270;2022-11-21T03:35:14;76.15;;;28.73;;
51927;SDS011;37953;52.806;18.270;2022-11-21T03:37:40;82.00;;;29.10;;
51927;SDS011;37953;52.806;18.270;2022-11-21T03:40:06;73.63;;;28.15;;
51927;SDS011;37953;52.806;18.270;2022-11-21T03:42:32;76.78;;;29.83;;
51927;SDS011;37953;52.806;18.270;2022-11-21T03:44:59;81.05;;;30.50;;
51927;SDS011;37953;52.806;18.270;2022-11-21T03:47:24;75.65;;;27.13;;
51927;SDS011;37953;52.806;18.270;2022-11-21T03:49:52;72.03;;;27.42;;
51927;SDS011;37953;52.806;18.270;2022-11-21T03:52:18;72.05;;;27.42;;
51927;SDS011;37953;52.806;18.270;2022-11-21T03:54:44;69.88;;;26.90;;
51927;SDS011;37953;52.806;18.270;2022-11-21T03:57:13;77.88;;;27.80;;
51927;SDS011;37953;52.806;18.270;2022-11-21T03:59:39;72.88;;;26.85;;
51927;SDS011;37953;52.806;18.270;2022-11-21T04:02:04;66.47;;;27.67;;
51927;SDS011;37953;52.806;18.270;2022-11-21T04:04:31;67.15;;;25.73;;
51927;SDS011;37953;52.806;18.270;2022-11-21T04:06:56;66.38;;;26.27;;
51927;SDS011;37953;52.806;18.270;2022-11-21T04:09:22;71.15;;;27.52;;
51927;SDS011;37953;52.806;18.270;2022-11-21T04:11:48;68.70;;;26.60;;
51927;SDS011;37953;52.806;18.270;2022-11-21T04:14:14;75.38;;;28.38;;
51927;SDS011;37953;52.806;18.270;2022-11-21T04:16:41;85.80;;;31.83;;
51927;SDS011;37953;52.806;18.270;2022-11-21T04:19:07;88.30;;;32.75;;
51927;SDS011;37953;52.806;18.270;2022-11-21T04:21:33;77.18;;;32.28;;
51927;SDS011;37953;52.806;18.270;2022-11-21T04:23:59;74.57;;;29.52;;
51927;SDS011;37953;52.806;18.270;2022-11-21T04:26:25;72.20;;;28.58;;
51927;SDS011;37953;52.806;18.270;2022-11-21T04:28:51;70.90;;;27.80;;
51927;SDS011;37953;52.806;18.270;2022-11-21T04:31:16;72.72;;;27.70;;
51927;SDS011;37953;52.806;18.270;2022-11-21T04:33:42;75.97;;;27.45;;
51927;SDS011;37953;52.806;18.270;2022-11-21T04:36:08;73.55;;;27.88;;
51927;SDS011;37953;52.806;18.270;2022-11-21T04:38:35;70.82;;;25.83;;
51927;SDS011;37953;52.806;18.270;2022-11-21T04:41:01;73.78;;;27.08;;
51927;SDS011;37953;52.806;18.270;2022-11-21T04:43:27;81.70;;;29.88;;
51927;SDS011;37953;52.806;18.270;2022-11-21T04:45:53;75.90;;;28.38;;
51927;SDS011;37953;52.806;18.270;2022-11-21T04:48:19;68.95;;;27.17;;
51927;SDS011;37953;52.806;18.270;2022-11-21T04:50:45;66.85;;;26.58;;
51927;SDS011;37953;52.806;18.270;2022-11-21T04:53:11;69.47;;;26.60;;
51927;SDS011;37953;52.806;18.270;2022-11-21T04:55:37;72.88;;;27.98;;
51927;SDS011;37953;52.806;18.270;2022-11-21T04:58:03;69.88;;;26.20;;
51927;SDS011;37953;52.806;18.270;2022-11-21T05:00:29;68.40;;;26.92;;
51927;SDS011;37953;52.806;18.270;2022-11-21T05:02:59;73.05;;;27.30;;
51927;SDS011;37953;52.806;18.270;2022-11-21T05:05:32;70.72;;;26.08;;
51927;SDS011;37953;52.806;18.270;2022-11-21T05:07:58;66.72;;;25.63;;
51927;SDS011;37953;52.806;18.270;2022-11-21T05:10:24;68.47;;;27.02;;
51927;SDS011;37953;52.806;18.270;2022-11-21T05:12:57;63.10;;;25.80;;
51927;SDS011;37953;52.806;18.270;2022-11-21T05:15:42;71.38;;;27.38;;
51927;SDS011;37953;52.806;18.270;2022-11-21T05:18:08;66.57;;;26.63;;
51927;SDS011;37953;52.806;18.270;2022-11-21T05:20:34;67.03;;;27.15;;
51927;SDS011;37953;52.806;18.270;2022-11-21T05:23:00;64.40;;;27.02;;
51927;SDS011;37953;52.806;18.270;2022-11-21T05:25:26;71.60;;;26.17;;
51927;SDS011;37953;52.806;18.270;2022-11-21T05:27:55;65.53;;;26.65;;
51927;SDS011;37953;52.806;18.270;2022-11-21T05:30:21;67.22;;;24.90;;
51927;SDS011;37953;52.806;18.270;2022-11-21T05:32:47;65.72;;;26.30;;
51927;SDS011;37953;52.806;18.270;2022-11-21T05:35:13;69.03;;;26.92;;
51927;SDS011;37953;52.806;18.270;2022-11-21T05:37:39;76.30;;;27.48;;
51927;SDS011;37953;52.806;18.270;2022-11-21T05:40:05;67.22;;;25.95;;
51927;SDS011;37953;52.806;18.270;2022-11-21T05:42:37;71.90;;;27.25;;
51927;SDS011;37953;52.806;18.270;2022-11-21T05:45:22;70.20;;;27.92;;
51927;SDS011;37953;52.806;18.270;2022-11-21T05:47:48;65.10;;;26.13;;
51927;SDS011;37953;52.806;18.270;2022-11-21T05:50:14;72.93;;;29.58;;
51927;SDS011;37953;52.806;18.270;2022-11-21T05:52:40;78.22;;;28.38;;
51927;SDS011;37953;52.806;18.270;2022-11-21T05:55:06;62.85;;;26.48;;
51927;SDS011;37953;52.806;18.270;2022-11-21T05:57:32;61.78;;;26.27;;
51927;SDS011;37953;52.806;18.270;2022-11-21T05:59:58;64.43;;;26.45;;
51927;SDS011;37953;52.806;18.270;2022-11-21T06:02:24;62.33;;;26.23;;
51927;SDS011;37953;52.806;18.270;2022-11-21T06:05:09;73.43;;;28.92;;
51927;SDS011;37953;52.806;18.270;2022-11-21T06:07:35;75.35;;;28.88;;
51927;SDS011;37953;52.806;18.270;2022-11-21T06:10:01;69.22;;;28.23;;
51927;SDS011;37953;52.806;18.270;2022-11-21T06:12:27;71.85;;;28.67;;
51927;SDS011;37953;52.806;18.270;2022-11-21T06:14:55;77.07;;;29.88;;
51927;SDS011;37953;52.806;18.270;2022-11-21T06:17:21;75.93;;;28.90;;
51927;SDS011;37953;52.806;18.270;2022-11-21T06:19:47;79.47;;;31.33;;
51927;SDS011;37953;52.806;18.270;2022-11-21T06:22:13;76.68;;;31.75;;
51927;SDS011;37953;52.806;18.270;2022-11-21T06:24:39;174.82;;;33.25;;
51927;SDS011;37953;52.806;18.270;2022-11-21T06:27:05;66.07;;;28.23;;
51927;SDS011;37953;52.806;18.270;2022-11-21T06:29:31;71.15;;;28.17;;
51927;SDS011;37953;52.806;18.270;2022-11-21T06:31:57;76.65;;;28.00;;
51927;SDS011;37953;52.806;18.270;2022-11-21T06:34:24;70.57;;;27.98;;
51927;SDS011;37953;52.806;18.270;2022-11-21T06:36:54;75.22;;;28.48;;
51927;SDS011;37953;52.806;18.270;2022-11-21T06:39:20;70.15;;;26.77;;
51927;SDS011;37953;52.806;18.270;2022-11-21T06:41:46;71.13;;;27.92;;
51927;SDS011;37953;52.806;18.270;2022-11-21T06:44:17;70.72;;;28.38;;
51927;SDS011;37953;52.806;18.270;2022-11-21T06:46:44;71.78;;;28.20;;
51927;SDS011;37953;52.806;18.270;2022-11-21T06:49:10;71.60;;;27.95;;
51927;SDS011;37953;52.806;18.270;2022-11-21T06:51:36;67.38;;;26.80;;
51927;SDS011;37953;52.806;18.270;2022-11-21T06:54:02;68.43;;;26.85;;
51927;SDS011;37953;52.806;18.270;2022-11-21T06:56:29;71.20;;;28.73;;
51927;SDS011;37953;52.806;18.270;2022-11-21T06:58:56;79.00;;;28.58;;
51927;SDS011;37953;52.806;18.270;2022-11-21T07:01:23;71.65;;;28.33;;
51927;SDS011;37953;52.806;18.270;2022-11-21T07:03:50;71.07;;;28.48;;
51927;SDS011;37953;52.806;18.270;2022-11-21T07:06:16;71.25;;;27.63;;
51927;SDS011;37953;52.806;18.270;2022-11-21T07:08:42;74.05;;;30.08;;
51927;SDS011;37953;52.806;18.270;2022-11-21T07:11:09;77.65;;;31.20;;
51927;SDS011;37953;52.806;18.270;2022-11-21T07:13:38;79.17;;;32.40;;
51927;SDS011;37953;52.806;18.270;2022-11-21T07:16:05;78.97;;;30.77;;
51927;SDS011;37953;52.806;18.270;2022-11-21T07:18:33;68.38;;;29.35;;
51927;SDS011;37953;52.806;18.270;2022-11-21T07:21:03;86.15;;;34.53;;
51927;SDS011;37953;52.806;18.270;2022-11-21T07:23:31;82.15;;;33.60;;
51927;SDS011;37953;52.806;18.270;2022-11-21T07:26:01;82.60;;;35.13;;
51927;SDS011;37953;52.806;18.270;2022-11-21T07:30:55;121.38;;;48.22;;
51927;SDS011;37953;52.806;18.270;2022-11-21T07:33:22;120.80;;;48.58;;
51927;SDS011;37953;52.806;18.270;2022-11-21T07:35:48;95.00;;;38.70;;
51927;SDS011;37953;52.806;18.270;2022-11-21T07:38:14;83.88;;;32.83;;
51927;SDS011;37953;52.806;18.270;2022-11-21T07:40:40;85.47;;;34.75;;
51927;SDS011;37953;52.806;18.270;2022-11-21T07:43:06;85.68;;;37.05;;
51927;SDS011;37953;52.806;18.270;2022-11-21T07:45:32;78.10;;;31.55;;
51927;SDS011;37953;52.806;18.270;2022-11-21T07:47:59;76.32;;;31.98;;
51927;SDS011;37953;52.806;18.270;2022-11-21T07:50:27;75.75;;;31.20;;
51927;SDS011;37953;52.806;18.270;2022-11-21T07:53:00;83.22;;;32.53;;
51927;SDS011;37953;52.806;18.270;2022-11-21T07:55:28;85.35;;;36.83;;
51927;SDS011;37953;52.806;18.270;2022-11-21T07:58:02;89.55;;;36.50;;
51927;SDS011;37953;52.806;18.270;2022-11-21T08:00:31;77.85;;;32.20;;
51927;SDS011;37953;52.806;18.270;2022-11-21T08:02:58;82.32;;;31.73;;
51927;SDS011;37953;52.806;18.270;2022-11-21T08:05:25;73.93;;;30.48;;
51927;SDS011;37953;52.806;18.270;2022-11-21T08:07:51;83.38;;;31.50;;
51927;SDS011;37953;52.806;18.270;2022-11-21T08:10:17;76.82;;;30.38;;
51927;SDS011;37953;52.806;18.270;2022-11-21T08:12:44;81.93;;;34.42;;
51927;SDS011;37953;52.806;18.270;2022-11-21T08:15:10;76.05;;;32.08;;
51927;SDS011;37953;52.806;18.270;2022-11-21T08:17:37;74.20;;;30.65;;
51927;SDS011;37953;52.806;18.270;2022-11-21T08:20:04;76.70;;;30.90;;
51927;SDS011;37953;52.806;18.270;2022-11-21T08:22:39;70.47;;;29.85;;
51927;SDS011;37953;52.806;18.270;2022-11-21T08:25:09;73.32;;;29.52;;
51927;SDS011;37953;52.806;18.270;2022-11-21T08:27:36;72.22;;;30.25;;
51927;SDS011;37953;52.806;18.270;2022-11-21T08:30:10;77.72;;;29.23;;
51927;SDS011;37953;52.806;18.270;2022-11-21T08:32:36;75.50;;;29.10;;
51927;SDS011;37953;52.806;18.270;2022-11-21T08:35:03;73.47;;;29.83;;
51927;SDS011;37953;52.806;18.270;2022-11-21T08:37:29;77.90;;;31.75;;
51927;SDS011;37953;52.806;18.270;2022-11-21T08:39:55;74.68;;;29.13;;
51927;SDS011;37953;52.806;18.270;2022-11-21T08:42:25;78.10;;;30.55;;
51927;SDS011;37953;52.806;18.270;2022-11-21T08:44:51;70.80;;;29.65;;
51927;SDS011;37953;52.806;18.270;2022-11-21T08:47:17;69.63;;;27.88;;
51927;SDS011;37953;52.806;18.270;2022-11-21T08:49:45;68.75;;;28.98;;
51927;SDS011;37953;52.806;18.270;2022-11-21T08:52:24;75.63;;;31.92;;
51927;SDS011;37953;52.806;18.270;2022-11-21T08:54:50;78.63;;;31.58;;
51927;SDS011;37953;52.806;18.270;2022-11-21T08:57:16;79.72;;;31.67;;
51927;SDS011;37953;52.806;18.270;2022-11-21T08:59:42;72.57;;;30.08;;
51927;SDS011;37953;52.806;18.270;2022-11-21T09:02:09;67.15;;;28.00;;
51927;SDS011;37953;52.806;18.270;2022-11-21T09:04:35;71.90;;;29.42;;
51927;SDS011;37953;52.806;18.270;2022-11-21T09:07:01;73.70;;;30.27;;
51927;SDS011;37953;52.806;18.270;2022-11-21T09:09:31;70.25;;;27.63;;
51927;SDS011;37953;52.806;18.270;2022-11-21T09:11:59;71.05;;;28.48;;
51927;SDS011;37953;52.806;18.270;2022-11-21T09:14:26;70.93;;;26.92;;
51927;SDS011;37953;52.806;18.270;2022-11-21T09:17:11;70.30;;;28.30;;
51927;SDS011;37953;52.806;18.270;2022-11-21T09:20:02;68.53;;;29.67;;
51927;SDS011;37953;52.806;18.270;2022-11-21T09:22:28;76.05;;;32.85;;
51927;SDS011;37953;52.806;18.270;2022-11-21T09:24:54;183.00;;;35.72;;
51927;SDS011;37953;52.806;18.270;2022-11-21T09:27:20;73.38;;;28.70;;
51927;SDS011;37953;52.806;18.270;2022-11-21T09:29:46;65.50;;;27.05;;
51927;SDS011;37953;52.806;18.270;2022-11-21T09:32:12;69.30;;;27.75;;
51927;SDS011;37953;52.806;18.270;2022-11-21T09:34:38;68.57;;;26.73;;
51927;SDS011;37953;52.806;18.270;2022-11-21T09:37:04;70.32;;;31.20;;
51927;SDS011;37953;52.806;18.270;2022-11-21T09:39:31;71.65;;;30.40;;
51927;SDS011;37953;52.806;18.270;2022-11-21T09:47:44;68.43;;;27.88;;
51927;SDS011;37953;52.806;18.270;2022-11-21T09:52:48;62.00;;;25.83;;
51927;SDS011;37953;52.806;18.270;2022-11-21T09:57:53;62.47;;;27.73;;
51927;SDS011;37953;52.806;18.270;2022-11-21T10:00:23;65.22;;;27.55;;
51927;SDS011;37953;52.806;18.270;2022-11-21T10:02:49;61.28;;;26.60;;
51927;SDS011;37953;52.806;18.270;2022-11-21T10:05:37;61.13;;;27.00;;
51927;SDS011;37953;52.806;18.270;2022-11-21T10:08:46;64.95;;;27.23;;
51927;SDS011;37953;52.806;18.270;2022-11-21T10:11:14;61.40;;;27.60;;
51927;SDS011;37953;52.806;18.270;2022-11-21T10:16:57;64.53;;;26.20;;
51927;SDS011;37953;52.806;18.270;2022-11-21T10:19:46;67.50;;;30.00;;
51927;SDS011;37953;52.806;18.270;2022-11-21T10:25:35;80.30;;;30.55;;
51927;SDS011;37953;52.806;18.270;2022-11-21T10:31:09;72.30;;;32.72;;
51927;SDS011;37953;52.806;18.270;2022-11-21T10:33:44;68.80;;;29.98;;
51927;SDS011;37953;52.806;18.270;2022-11-21T10:36:30;64.43;;;26.92;;
51927;SDS011;37953;52.806;18.270;2022-11-21T10:39:09;67.65;;;28.23;;
51927;SDS011;37953;52.806;18.270;2022-11-21T10:44:55;75.65;;;30.60;;
51927;SDS011;37953;52.806;18.270;2022-11-21T10:47:43;68.20;;;30.38;;
51927;SDS011;37953;52.806;18.270;2022-11-21T10:50:16;72.38;;;29.90;;
51927;SDS011;37953;52.806;18.270;2022-11-21T10:58:39;106.65;;;47.08;;
51927;SDS011;37953;52.806;18.270;2022-11-21T11:01:27;86.03;;;37.53;;
51927;SDS011;37953;52.806;18.270;2022-11-21T11:04:05;77.75;;;35.22;;
51927;SDS011;37953;52.806;18.270;2022-11-21T11:06:37;73.63;;;33.35;;
51927;SDS011;37953;52.806;18.270;2022-11-21T11:09:05;73.97;;;31.50;;
51927;SDS011;37953;52.806;18.270;2022-11-21T11:11:32;76.38;;;31.48;;
51927;SDS011;37953;52.806;18.270;2022-11-21T11:14:03;71.15;;;31.02;;
51927;SDS011;37953;52.806;18.270;2022-11-21T11:16:31;78.60;;;32.33;;
51927;SDS011;37953;52.806;18.270;2022-11-21T11:26:51;85.68;;;32.05;;
51927;SDS011;37953;52.806;18.270;2022-11-21T11:29:26;78.70;;;33.08;;
51927;SDS011;37953;52.806;18.270;2022-11-21T11:49:29;77.30;;;32.47;;
51927;SDS011;37953;52.806;18.270;2022-11-21T11:52:29;77.55;;;32.13;;
51927;SDS011;37953;52.806;18.270;2022-11-21T11:55:03;75.95;;;30.83;;
51927;SDS011;37953;52.806;18.270;2022-11-21T11:57:44;77.00;;;33.95;;
51927;SDS011;37953;52.806;18.270;2022-11-21T12:03:14;73.03;;;32.95;;
51927;SDS011;37953;52.806;18.270;2022-11-21T12:06:11;75.45;;;32.17;;
51927;SDS011;37953;52.806;18.270;2022-11-21T12:11:47;84.20;;;32.97;;
51927;SDS011;37953;52.806;18.270;2022-11-21T12:23:35;73.47;;;31.88;;
51927;SDS011;37953;52.806;18.270;2022-11-21T12:28:55;68.28;;;31.05;;
51927;SDS011;37953;52.806;18.270;2022-11-21T12:37:03;79.75;;;33.33;;
51927;SDS011;37953;52.806;18.270;2022-11-21T12:49:21;87.28;;;35.83;;
51927;SDS011;37953;52.806;18.270;2022-11-21T12:52:39;80.25;;;31.85;;
51927;SDS011;37953;52.806;18.270;2022-11-21T12:55:36;79.88;;;33.13;;
51927;SDS011;37953;52.806;18.270;2022-11-21T12:58:06;82.07;;;33.15;;
51927;SDS011;37953;52.806;18.270;2022-11-21T13:06:26;81.35;;;34.72;;
51927;SDS011;37953;52.806;18.270;2022-11-21T13:08:56;85.38;;;35.13;;
51927;SDS011;37953;52.806;18.270;2022-11-21T13:11:32;73.15;;;32.67;;
51927;SDS011;37953;52.806;18.270;2022-11-21T13:14:38;76.13;;;32.40;;
51927;SDS011;37953;52.806;18.270;2022-11-21T13:17:23;75.88;;;33.13;;
51927;SDS011;37953;52.806;18.270;2022-11-21T13:22:53;83.65;;;33.53;;
51927;SDS011;37953;52.806;18.270;2022-11-21T13:30:54;80.50;;;35.38;;
51927;SDS011;37953;52.806;18.270;2022-11-21T13:46:58;76.50;;;33.35;;
51927;SDS011;37953;52.806;18.270;2022-11-21T14:07:23;79.50;;;33.00;;
51927;SDS011;37953;52.806;18.270;2022-11-21T14:10:00;84.13;;;35.03;;
51927;SDS011;37953;52.806;18.270;2022-11-21T14:12:32;86.22;;;34.67;;
51927;SDS011;37953;52.806;18.270;2022-11-21T14:17:35;80.85;;;34.33;;
51927;SDS011;37953;52.806;18.270;2022-11-21T14:20:13;75.32;;;32.90;;
51927;SDS011;37953;52.806;18.270;2022-11-21T14:23:03;101.38;;;35.00;;
51927;SDS011;37953;52.806;18.270;2022-11-21T14:28:05;95.03;;;36.28;;
51927;SDS011;37953;52.806;18.270;2022-11-21T14:30:40;94.97;;;37.60;;
51927;SDS011;37953;52.806;18.270;2022-11-21T14:33:27;84.28;;;34.65;;
51927;SDS011;37953;52.806;18.270;2022-11-21T14:38:41;89.78;;;36.42;;
51927;SDS011;37953;52.806;18.270;2022-11-21T14:41:20;80.50;;;35.00;;
51927;SDS011;37953;52.806;18.270;2022-11-21T14:46:22;91.47;;;35.63;;
51927;SDS011;37953;52.806;18.270;2022-11-21T14:48:49;85.97;;;35.28;;
51927;SDS011;37953;52.806;18.270;2022-11-21T14:51:17;82.10;;;34.15;;
51927;SDS011;37953;52.806;18.270;2022-11-21T14:53:49;79.97;;;35.03;;
51927;SDS011;37953;52.806;18.270;2022-11-21T14:56:22;81.32;;;35.30;;
51927;SDS011;37953;52.806;18.270;2022-11-21T14:58:52;83.75;;;36.40;;
51927;SDS011;37953;52.806;18.270;2022-11-21T15:03:58;84.40;;;34.10;;
51927;SDS011;37953;52.806;18.270;2022-11-21T15:06:41;77.10;;;33.28;;
51927;SDS011;37953;52.806;18.270;2022-11-21T15:09:11;73.47;;;32.42;;
51927;SDS011;37953;52.806;18.270;2022-11-21T15:11:46;76.93;;;32.78;;
51927;SDS011;37953;52.806;18.270;2022-11-21T15:14:19;80.00;;;34.17;;
51927;SDS011;37953;52.806;18.270;2022-11-21T15:17:10;73.20;;;31.52;;
51927;SDS011;37953;52.806;18.270;2022-11-21T15:19:43;82.95;;;33.63;;
51927;SDS011;37953;52.806;18.270;2022-11-21T15:22:24;79.97;;;34.83;;
51927;SDS011;37953;52.806;18.270;2022-11-21T15:27:32;85.13;;;36.45;;
51927;SDS011;37953;52.806;18.270;2022-11-21T15:30:21;86.20;;;36.10;;
51927;SDS011;37953;52.806;18.270;2022-11-21T15:35:47;78.70;;;34.30;;
51927;SDS011;37953;52.806;18.270;2022-11-21T15:38:27;85.55;;;32.70;;
51927;SDS011;37953;52.806;18.270;2022-11-21T15:46:15;95.43;;;37.65;;
51927;SDS011;37953;52.806;18.270;2022-11-21T15:49:05;96.05;;;38.92;;
51927;SDS011;37953;52.806;18.270;2022-11-21T15:51:36;96.35;;;38.80;;
51927;SDS011;37953;52.806;18.270;2022-11-21T15:54:04;98.80;;;40.42;;
51927;SDS011;37953;52.806;18.270;2022-11-21T15:56:32;88.70;;;37.78;;
51927;SDS011;37953;52.806;18.270;2022-11-21T15:58:58;87.47;;;36.55;;
51927;SDS011;37953;52.806;18.270;2022-11-21T16:01:25;86.63;;;36.70;;
51927;SDS011;37953;52.806;18.270;2022-11-21T16:03:59;84.13;;;35.88;;
51927;SDS011;37953;52.806;18.270;2022-11-21T16:06:32;87.82;;;34.72;;
51927;SDS011;37953;52.806;18.270;2022-11-21T16:08:59;82.50;;;36.28;;
51927;SDS011;37953;52.806;18.270;2022-11-21T16:11:26;93.25;;;37.05;;
51927;SDS011;37953;52.806;18.270;2022-11-21T16:13:55;93.68;;;38.53;;
51927;SDS011;37953;52.806;18.270;2022-11-21T16:16:23;94.82;;;39.58;;
51927;SDS011;37953;52.806;18.270;2022-11-21T16:18:51;91.47;;;39.78;;
51927;SDS011;37953;52.806;18.270;2022-11-21T16:21:17;96.60;;;43.08;;
51927;SDS011;37953;52.806;18.270;2022-11-21T16:23:43;112.97;;;47.90;;
51927;SDS011;37953;52.806;18.270;2022-11-21T16:26:10;108.28;;;48.05;;
51927;SDS011;37953;52.806;18.270;2022-11-21T16:28:42;109.30;;;50.47;;
51927;SDS011;37953;52.806;18.270;2022-11-21T16:31:21;107.53;;;47.88;;
51927;SDS011;37953;52.806;18.270;2022-11-21T16:36:18;101.10;;;44.00;;
51927;SDS011;37953;52.806;18.270;2022-11-21T16:38:46;98.65;;;42.97;;
51927;SDS011;37953;52.806;18.270;2022-11-21T16:41:12;97.03;;;43.22;;
51927;SDS011;37953;52.806;18.270;2022-11-21T16:43:44;100.50;;;42.63;;
51927;SDS011;37953;52.806;18.270;2022-11-21T16:46:12;112.97;;;53.22;;
51927;SDS011;37953;52.806;18.270;2022-11-21T16:48:39;113.90;;;48.10;;
51927;SDS011;37953;52.806;18.270;2022-11-21T16:51:09;158.48;;;58.08;;
51927;SDS011;37953;52.806;18.270;2022-11-21T16:53:37;155.95;;;57.42;;
51927;SDS011;37953;52.806;18.270;2022-11-21T16:56:04;145.25;;;56.58;;
51927;SDS011;37953;52.806;18.270;2022-11-21T16:58:30;135.00;;;54.63;;
51927;SDS011;37953;52.806;18.270;2022-11-21T17:00:57;130.93;;;57.95;;
51927;SDS011;37953;52.806;18.270;2022-11-21T17:03:22;120.78;;;53.88;;
51927;SDS011;37953;52.806;18.270;2022-11-21T17:05:58;106.95;;;50.55;;
51927;SDS011;37953;52.806;18.270;2022-11-21T17:08:26;110.32;;;49.58;;
51927;SDS011;37953;52.806;18.270;2022-11-21T17:11:09;122.32;;;55.35;;
51927;SDS011;37953;52.806;18.270;2022-11-21T17:14:02;125.18;;;54.95;;
51927;SDS011;37953;52.806;18.270;2022-11-21T17:16:30;120.90;;;54.10;;